createdAt,value
2018-02-08T00:00:35.754Z,63.60
2018-02-08T00:03:04.023Z,56.43
2018-02-08T00:05:32.418Z,57.13
2018-02-08T00:08:00.672Z,59.27
2018-02-08T00:10:28.937Z,66.43
2018-02-08T00:12:58.078Z,59.83
2018-02-08T00:15:26.391Z,54.10
2018-02-08T00:17:54.642Z,61.80
2018-02-08T00:20:23.106Z,57.83
2018-02-08T00:22:51.403Z,65.90
2018-02-08T00:25:19.679Z,60.50
2018-02-08T00:27:47.957Z,56.17
2018-02-08T00:30:16.234Z,57.27
2018-02-08T00:32:44.555Z,60.75
2018-02-08T00:35:12.817Z,59.28
2018-02-08T00:37:41.083Z,62.63
2018-02-08T00:40:09.337Z,54.10
2018-02-08T00:42:37.647Z,52.03
2018-02-08T00:45:05.890Z,62.27
2018-02-08T00:47:34.170Z,68.13
2018-02-08T00:50:02.513Z,62.13
2018-02-08T00:52:30.853Z,60.55
2018-02-08T00:54:59.118Z,60.43
2018-02-08T00:57:27.386Z,60.97
2018-02-08T00:59:56.418Z,66.10
2018-02-08T01:02:24.814Z,63.93
2018-02-08T01:04:53.127Z,57.60
2018-02-08T01:07:21.378Z,73.07
2018-02-08T01:09:49.629Z,57.70
2018-02-08T01:12:17.931Z,60.50
2018-02-08T01:14:46.182Z,69.73
2018-02-08T01:17:15.311Z,60.90
2018-02-08T01:19:43.553Z,59.90
2018-02-08T01:22:12.590Z,60.67
2018-02-08T01:24:40.833Z,62.10
2018-02-08T01:27:09.882Z,63.90
2018-02-08T01:29:38.121Z,59.60
2018-02-08T01:32:06.395Z,60.63
2018-02-08T01:34:35.408Z,66.33
2018-02-08T01:37:03.694Z,69.20
2018-02-08T01:39:31.945Z,63.80
2018-02-08T01:42:00.987Z,65.73
2018-02-08T01:44:29.237Z,59.67
2018-02-08T01:46:58.283Z,53.30
2018-02-08T01:49:38.642Z,62.47
2018-02-08T01:52:07.015Z,70.37
2018-02-08T01:54:35.266Z,70.90
2018-02-08T01:57:03.555Z,64.83
2018-02-08T01:59:32.549Z,62.77
2018-02-08T02:02:00.823Z,65.17
2018-02-08T02:04:29.081Z,63.10
2018-02-08T02:06:58.133Z,65.17
2018-02-08T02:09:26.511Z,59.37
2018-02-08T02:11:54.778Z,66.13
2018-02-08T02:14:23.033Z,58.77
2018-02-08T02:16:52.166Z,61.67
2018-02-08T02:19:20.485Z,66.63
2018-02-08T02:21:48.713Z,63.60
2018-02-08T02:24:16.973Z,66.30
2018-02-08T02:26:46.115Z,56.33
2018-02-08T02:29:14.390Z,61.63
2018-02-08T02:31:42.675Z,55.73
2018-02-08T02:34:11.775Z,66.05
2018-02-08T02:36:40.054Z,61.50
2018-02-08T02:39:08.344Z,64.13
2018-02-08T02:41:36.606Z,57.03
2018-02-08T02:44:04.858Z,71.87
2018-02-08T02:46:35.422Z,63.23
2018-02-08T02:49:03.684Z,67.93
2018-02-08T02:51:32.754Z,62.23
2018-02-08T02:54:01.002Z,63.77
2018-02-08T02:56:29.276Z,61.90
2018-02-08T02:58:57.566Z,62.10
2018-02-08T03:01:25.938Z,68.33
2018-02-08T03:03:54.192Z,70.20
2018-02-08T03:06:22.466Z,58.00
2018-02-08T03:08:51.490Z,64.80
2018-02-08T03:11:19.769Z,64.37
2018-02-08T03:13:48.064Z,68.72
2018-02-08T03:16:16.314Z,58.05
2018-02-08T03:18:44.622Z,70.23
2018-02-08T03:21:12.898Z,70.30
2018-02-08T03:23:41.181Z,71.50
2018-02-08T03:26:09.466Z,65.03
2018-02-08T03:28:37.709Z,62.77
2018-02-08T03:31:20.862Z,67.37
2018-02-08T03:33:49.185Z,64.70
2018-02-08T03:36:18.258Z,57.80
2018-02-08T03:38:46.502Z,76.43
2018-02-08T03:41:14.850Z,59.08
2018-02-08T03:43:43.090Z,69.37
2018-02-08T03:46:11.357Z,70.65
2018-02-08T03:48:39.655Z,62.90
2018-02-08T03:51:07.940Z,67.97
2018-02-08T03:53:36.189Z,64.53
2018-02-08T03:56:04.461Z,63.67
2018-02-08T03:58:33.478Z,65.73
2018-02-08T04:01:01.786Z,66.33
2018-02-08T04:03:30.054Z,67.45
2018-02-08T04:05:58.310Z,64.07
2018-02-08T04:08:26.577Z,66.83
2018-02-08T04:10:54.838Z,65.70
2018-02-08T04:13:23.227Z,76.07
2018-02-08T04:15:51.454Z,62.22
2018-02-08T04:18:19.743Z,69.47
2018-02-08T04:20:48.024Z,61.40
2018-02-08T04:23:16.291Z,69.18
2018-02-08T04:25:44.550Z,77.18
2018-02-08T04:28:13.687Z,70.05
2018-02-08T04:30:41.966Z,69.07
2018-02-08T04:33:10.241Z,82.22
2018-02-08T04:35:38.493Z,67.10
2018-02-08T04:38:06.798Z,75.35
2018-02-08T04:40:46.826Z,82.10
2018-02-08T04:43:26.982Z,73.93
2018-02-08T04:48:59.990Z,62.97
2018-02-08T04:51:29.135Z,72.75
2018-02-08T04:53:57.418Z,72.80
2018-02-08T04:56:25.701Z,71.43
2018-02-08T04:58:54.010Z,64.75
2018-02-08T05:01:22.245Z,67.93
2018-02-08T05:03:50.538Z,72.78
2018-02-08T05:06:18.784Z,75.60
2018-02-08T05:08:47.057Z,79.50
2018-02-08T05:11:15.370Z,69.25
2018-02-08T05:13:43.654Z,77.37
2018-02-08T05:16:12.763Z,71.10
2018-02-08T05:18:41.055Z,73.45
2018-02-08T05:21:09.308Z,68.32
2018-02-08T05:23:37.593Z,75.40
2018-02-08T05:26:05.908Z,71.80
2018-02-08T05:28:34.158Z,75.45
2018-02-08T05:31:02.419Z,76.65
2018-02-08T05:33:30.717Z,73.57
2018-02-08T05:35:58.999Z,69.00
2018-02-08T05:38:27.270Z,78.93
2018-02-08T05:40:55.540Z,79.03
2018-02-08T05:43:23.833Z,71.68
2018-02-08T05:45:52.135Z,74.03
2018-02-08T05:48:20.424Z,72.82
2018-02-08T05:50:48.785Z,67.80
2018-02-08T05:53:17.061Z,68.12
2018-02-08T05:55:45.305Z,72.32
2018-02-08T05:58:13.577Z,73.75
2018-02-08T06:00:42.605Z,73.37
2018-02-08T06:03:10.870Z,69.60
2018-02-08T06:05:39.182Z,69.47
2018-02-08T06:08:07.452Z,70.40
2018-02-08T06:10:35.713Z,64.75
2018-02-08T06:13:03.984Z,74.30
2018-02-08T06:15:33.002Z,74.10
2018-02-08T06:18:01.346Z,73.12
2018-02-08T06:20:29.570Z,77.00
2018-02-08T06:22:58.346Z,76.10
2018-02-08T06:25:26.668Z,82.63
2018-02-08T06:27:55.661Z,77.37
2018-02-08T06:30:23.937Z,69.07
2018-02-08T06:32:52.332Z,76.78
2018-02-08T06:35:20.603Z,79.22
2018-02-08T06:37:48.981Z,78.80
2018-02-08T06:40:17.263Z,70.60
2018-02-08T06:42:45.579Z,69.95
2018-02-08T06:45:13.802Z,70.83
2018-02-08T06:47:42.249Z,69.07
2018-02-08T06:50:10.596Z,76.50
2018-02-08T06:52:38.907Z,74.10
2018-02-08T06:55:07.150Z,74.47
2018-02-08T06:57:35.439Z,85.70
2018-02-08T07:00:03.701Z,75.03
2018-02-08T07:02:32.003Z,80.95
2018-02-08T07:05:00.374Z,88.62
2018-02-08T07:07:28.643Z,67.65
2018-02-08T07:09:56.922Z,66.37
2018-02-08T07:12:25.216Z,69.70
2018-02-08T07:14:53.501Z,79.12
2018-02-08T07:17:21.822Z,74.10
2018-02-08T07:19:50.063Z,72.03
2018-02-08T07:22:18.422Z,72.10
2018-02-08T07:24:46.742Z,74.75
2018-02-08T07:27:15.038Z,72.80
2018-02-08T07:29:43.322Z,73.30
2018-02-08T07:32:11.689Z,73.85
2018-02-08T07:34:39.957Z,74.70
2018-02-08T07:37:08.213Z,61.13
2018-02-08T07:39:36.484Z,73.57
2018-02-08T07:42:04.802Z,77.83
2018-02-08T07:44:33.065Z,69.95
2018-02-08T07:47:01.345Z,69.10
2018-02-08T07:49:29.616Z,75.37
2018-02-08T07:51:57.881Z,78.12
2018-02-08T07:54:27.031Z,73.05
2018-02-08T07:56:55.308Z,73.97
2018-02-08T07:59:23.557Z,61.63
2018-02-08T08:01:52.703Z,70.67
2018-02-08T08:04:20.954Z,62.60
2018-02-08T08:06:49.213Z,67.30
2018-02-08T08:09:18.224Z,67.80
2018-02-08T08:11:46.562Z,76.10
2018-02-08T08:14:14.917Z,71.80
2018-02-08T08:16:43.202Z,67.47
2018-02-08T08:19:11.449Z,66.73
2018-02-08T08:21:39.729Z,66.57
2018-02-08T08:24:07.986Z,61.63
2018-02-08T08:26:36.269Z,70.87
2018-02-08T08:29:04.654Z,65.10
2018-02-08T08:31:32.881Z,67.40
2018-02-08T08:34:01.178Z,64.00
2018-02-08T08:36:29.481Z,58.43
2018-02-08T08:38:57.758Z,65.63
2018-02-08T08:41:25.966Z,62.53
2018-02-08T08:43:54.666Z,59.03
2018-02-08T08:46:23.678Z,61.67
2018-02-08T08:48:51.985Z,66.33
2018-02-08T08:51:20.238Z,61.83
2018-02-08T08:53:49.457Z,56.10
2018-02-08T08:56:17.723Z,65.63
2018-02-08T08:58:45.993Z,65.00
2018-02-08T09:01:14.299Z,67.33
2018-02-08T09:03:42.578Z,68.57
2018-02-08T09:06:10.881Z,69.73
2018-02-08T09:08:39.145Z,71.47
2018-02-08T09:11:07.453Z,72.23
2018-02-08T09:13:35.694Z,74.10
2018-02-08T09:16:03.946Z,69.70
2018-02-08T09:18:32.257Z,67.53
2018-02-08T09:21:00.511Z,73.33
2018-02-08T09:23:28.760Z,73.60
2018-02-08T09:25:57.026Z,66.10
2018-02-08T09:28:25.382Z,66.33
2018-02-08T09:30:53.650Z,63.07
2018-02-08T09:33:21.967Z,70.20
2018-02-08T09:35:50.230Z,65.60
2018-02-08T09:38:18.495Z,70.07
2018-02-08T09:40:46.777Z,64.67
2018-02-08T09:43:15.031Z,68.60
2018-02-08T09:45:43.339Z,67.40
2018-02-08T09:48:11.631Z,69.77
2018-02-08T09:50:39.900Z,69.77
2018-02-08T09:53:08.186Z,64.60
2018-02-08T09:55:36.575Z,61.80
2018-02-08T09:58:04.851Z,64.70
2018-02-08T10:00:33.119Z,64.50
2018-02-08T10:03:01.413Z,63.83
2018-02-08T10:05:29.792Z,65.10
2018-02-08T10:07:58.078Z,73.83
2018-02-08T10:10:26.983Z,63.70
2018-02-08T10:12:56.079Z,67.23
2018-02-08T10:15:24.350Z,73.87
2018-02-08T10:17:52.633Z,64.07
2018-02-08T10:20:20.894Z,70.50
2018-02-08T10:22:49.221Z,74.40
2018-02-08T10:25:17.469Z,67.07
2018-02-08T10:27:45.857Z,68.07
2018-02-08T10:30:14.171Z,66.27
2018-02-08T10:32:42.418Z,71.13
2018-02-08T10:35:10.737Z,70.87
2018-02-08T10:37:39.073Z,69.43
2018-02-08T10:40:07.361Z,70.50
2018-02-08T10:42:35.638Z,75.10
2018-02-08T10:45:03.919Z,79.50
2018-02-08T10:47:32.209Z,76.23
2018-02-08T10:50:00.497Z,83.30
2018-02-08T10:52:28.778Z,72.90
2018-02-08T10:54:57.086Z,75.80
2018-02-08T10:57:25.334Z,76.57
2018-02-08T10:59:53.618Z,75.80
2018-02-08T11:02:21.877Z,74.63
2018-02-08T11:04:51.002Z,71.90
2018-02-08T11:07:19.278Z,76.80
2018-02-08T11:09:48.545Z,77.27
2018-02-08T11:12:17.577Z,79.30
2018-02-08T11:14:45.858Z,73.60
2018-02-08T11:17:14.172Z,84.17
2018-02-08T11:19:42.477Z,81.20
2018-02-08T11:22:10.699Z,73.90
2018-02-08T11:24:38.957Z,73.07
2018-02-08T11:27:07.299Z,73.37
2018-02-08T11:29:35.533Z,77.33
2018-02-08T11:32:03.832Z,72.53
2018-02-08T11:34:32.149Z,79.00
2018-02-08T11:37:00.409Z,77.97
2018-02-08T11:39:28.682Z,87.47
2018-02-08T11:41:56.925Z,80.17
2018-02-08T11:44:25.193Z,84.27
2018-02-08T11:46:53.524Z,81.57
2018-02-08T11:49:21.890Z,75.93
2018-02-08T11:51:50.313Z,83.30
2018-02-08T11:54:18.657Z,81.90
2018-02-08T11:56:46.951Z,75.10
2018-02-08T11:59:15.198Z,90.17
2018-02-08T12:01:44.103Z,80.00
2018-02-08T12:04:12.537Z,79.00
2018-02-08T12:06:41.651Z,80.67
2018-02-08T12:09:09.892Z,75.53
2018-02-08T12:11:38.178Z,73.30
2018-02-08T12:14:06.421Z,72.80
2018-02-08T12:16:34.712Z,72.40
2018-02-08T12:19:02.962Z,73.23
2018-02-08T12:21:32.039Z,83.40
2018-02-08T12:24:00.285Z,80.30
2018-02-08T12:26:28.552Z,75.50
2018-02-08T12:28:56.801Z,86.33
2018-02-08T12:31:25.954Z,90.60
2018-02-08T12:33:54.281Z,74.33
2018-02-08T12:36:23.334Z,74.17
2018-02-08T12:38:51.642Z,75.37
2018-02-08T12:41:19.882Z,84.33
2018-02-08T12:43:48.160Z,92.77
2018-02-08T12:46:16.447Z,72.93
2018-02-08T12:48:44.689Z,84.20
2018-02-08T12:51:13.831Z,78.40
2018-02-08T12:53:42.111Z,81.23
2018-02-08T12:56:10.398Z,90.40
2018-02-08T12:58:38.664Z,84.80
2018-02-08T13:01:06.949Z,78.67
2018-02-08T13:03:35.231Z,81.93
2018-02-08T13:06:03.523Z,88.03
2018-02-08T13:08:31.782Z,84.87
2018-02-08T13:11:00.040Z,82.90
2018-02-08T13:13:29.079Z,78.67
2018-02-08T13:15:57.339Z,80.23
2018-02-08T13:18:25.598Z,80.77
2018-02-08T13:20:54.738Z,90.43
2018-02-08T13:23:23.013Z,80.70
2018-02-08T13:25:51.328Z,90.80
2018-02-08T13:28:19.674Z,79.87
2018-02-08T13:30:47.932Z,85.50
2018-02-08T13:33:16.194Z,89.00
2018-02-08T13:35:45.211Z,83.70
2018-02-08T13:38:13.462Z,84.83
2018-02-08T13:40:44.184Z,86.07
2018-02-08T13:43:12.428Z,83.20
2018-02-08T13:45:40.666Z,86.53
2018-02-08T13:48:12.264Z,94.23
2018-02-08T13:51:00.450Z,96.47
2018-02-08T13:53:34.520Z,80.57
2018-02-08T13:59:14.094Z,89.80
2018-02-08T14:01:48.079Z,93.80
2018-02-08T14:04:17.106Z,95.90
2018-02-08T14:06:45.400Z,88.60
2018-02-08T14:09:13.670Z,80.20
2018-02-08T14:11:41.957Z,100.80
2018-02-08T14:14:10.317Z,89.77
2018-02-08T14:16:38.642Z,91.77
2018-02-08T14:19:07.007Z,90.23
2018-02-08T14:21:35.262Z,86.93
2018-02-08T14:24:03.517Z,99.23
2018-02-08T14:26:32.530Z,90.40
2018-02-08T14:29:00.866Z,101.20
2018-02-08T14:31:29.217Z,95.97
2018-02-08T14:33:57.547Z,97.67
2018-02-08T14:36:25.807Z,90.97
2018-02-08T14:38:54.081Z,86.37
2018-02-08T14:41:22.463Z,84.70
2018-02-08T14:43:50.721Z,97.10
2018-02-08T14:46:19.014Z,91.50
2018-02-08T14:48:47.322Z,90.50
2018-02-08T14:51:15.561Z,90.97
2018-02-08T14:53:43.809Z,96.67
2018-02-08T14:56:12.078Z,90.83
2018-02-08T14:58:40.443Z,96.23
2018-02-08T15:01:08.718Z,92.60
2018-02-08T15:03:36.989Z,92.10
2018-02-08T15:06:05.263Z,91.23
2018-02-08T15:08:33.538Z,90.57
2018-02-08T15:11:01.802Z,93.53
2018-02-08T15:13:30.052Z,91.07
2018-02-08T15:15:58.383Z,93.00
2018-02-08T15:18:26.637Z,107.70
2018-02-08T15:20:54.922Z,97.77
2018-02-08T15:23:23.161Z,87.40
2018-02-08T15:25:51.410Z,97.63
2018-02-08T15:28:19.682Z,94.03
2018-02-08T15:30:47.964Z,105.20
2018-02-08T15:33:16.248Z,100.20
2018-02-08T15:35:44.495Z,98.57
2018-02-08T15:38:13.694Z,94.27
2018-02-08T15:40:42.767Z,96.50
2018-02-08T15:43:11.011Z,99.23
2018-02-08T15:45:40.085Z,85.33
2018-02-08T15:48:08.395Z,97.03
2018-02-08T15:50:36.674Z,97.67
2018-02-08T15:53:04.938Z,91.57
2018-02-08T15:55:33.182Z,91.37
2018-02-08T15:58:02.230Z,92.80
2018-02-08T16:00:30.506Z,94.27
2018-02-08T16:02:58.781Z,89.03
2018-02-08T16:05:27.081Z,101.40
2018-02-08T16:07:55.365Z,105.33
2018-02-08T16:10:24.364Z,95.97
2018-02-08T16:12:52.624Z,116.03
2018-02-08T16:15:20.899Z,84.87
2018-02-08T16:17:49.185Z,95.03
2018-02-08T16:20:17.462Z,93.63
2018-02-08T16:22:46.502Z,106.30
2018-02-08T16:25:14.852Z,101.53
2018-02-08T16:27:43.110Z,98.90
2018-02-08T16:30:11.433Z,94.53
2018-02-08T16:32:39.710Z,98.00
2018-02-08T16:35:08.084Z,99.57
2018-02-08T16:37:36.375Z,102.33
2018-02-08T16:40:04.745Z,105.10
2018-02-08T16:42:33.030Z,106.87
2018-02-08T16:45:01.297Z,99.00
2018-02-08T16:47:29.563Z,110.50
2018-02-08T16:49:57.886Z,102.37
2018-02-08T16:52:26.693Z,98.70
2018-02-08T16:54:54.970Z,106.70
2018-02-08T16:57:23.225Z,113.73
2018-02-08T16:59:51.505Z,106.40
2018-02-08T17:02:19.757Z,102.43
2018-02-08T17:04:48.038Z,111.40
2018-02-08T17:07:16.306Z,99.07
2018-02-08T17:09:44.559Z,97.57
2018-02-08T17:12:13.613Z,99.50
2018-02-08T17:14:41.867Z,92.47
2018-02-08T17:17:10.142Z,94.37
2018-02-08T17:19:38.397Z,98.87
2018-02-08T17:22:07.455Z,99.10
2018-02-08T17:24:35.972Z,96.35
2018-02-08T17:27:04.321Z,98.87
2018-02-08T17:29:32.569Z,99.67
2018-02-08T17:32:00.843Z,114.37
2018-02-08T17:34:29.866Z,109.57
2018-02-08T17:36:58.147Z,112.27
2018-02-08T17:39:26.394Z,103.60
2018-02-08T17:41:55.538Z,112.87
2018-02-08T17:44:23.824Z,102.67
2018-02-08T17:46:52.086Z,107.30
2018-02-08T17:49:20.370Z,116.78
2018-02-08T17:51:48.638Z,109.73
2018-02-08T17:54:16.906Z,108.43
2018-02-08T17:56:45.223Z,110.88
2018-02-08T17:59:13.503Z,103.25
2018-02-08T18:01:41.761Z,113.07
2018-02-08T18:04:10.057Z,140.30
2018-02-08T18:06:38.338Z,351.47
2018-02-08T18:09:06.614Z,504.60
2018-02-08T18:11:34.938Z,978.23
2018-02-08T18:14:03.307Z,751.83
2018-02-08T18:16:31.561Z,528.20
2018-02-08T18:18:59.955Z,545.85
2018-02-08T18:21:29.137Z,217.90
2018-02-08T18:23:57.418Z,484.60
2018-02-08T18:26:25.690Z,850.28
2018-02-08T18:28:53.972Z,795.93
2018-02-08T18:31:22.289Z,779.27
2018-02-08T18:33:50.673Z,577.17
2018-02-08T18:36:19.033Z,201.67
2018-02-08T18:38:47.318Z,143.63
2018-02-08T18:41:15.580Z,109.50
2018-02-08T18:43:43.934Z,110.63
2018-02-08T18:46:12.162Z,115.77
2018-02-08T18:48:40.415Z,111.80
2018-02-08T18:51:08.689Z,112.07
2018-02-08T18:53:37.004Z,107.75
2018-02-08T18:56:05.273Z,108.90
2018-02-08T18:58:34.599Z,103.60
2018-02-08T19:01:02.849Z,93.27
2018-02-08T19:03:31.152Z,98.63
2018-02-08T19:06:00.908Z,105.33
2018-02-08T19:08:29.135Z,99.57
2018-02-08T19:10:57.438Z,106.03
2018-02-08T19:13:25.818Z,111.03
2018-02-08T19:15:54.215Z,110.87
2018-02-08T19:18:23.275Z,114.27
2018-02-08T19:20:51.571Z,99.70
2018-02-08T19:23:19.850Z,93.90
2018-02-08T19:25:48.129Z,99.20
2018-02-08T19:28:16.415Z,103.43
2018-02-08T19:30:44.676Z,99.00
2018-02-08T19:33:12.939Z,111.00
2018-02-08T19:35:41.287Z,94.67
2018-02-08T19:38:09.526Z,99.60
2018-02-08T19:40:37.895Z,119.20
2018-02-08T19:43:06.333Z,106.00
2018-02-08T19:45:35.800Z,116.80
2018-02-08T19:48:04.153Z,116.25
2018-02-08T19:50:32.410Z,110.50
2018-02-08T19:53:00.681Z,111.77
2018-02-08T19:55:28.938Z,124.63
2018-02-08T19:57:57.213Z,114.73
2018-02-08T20:00:25.481Z,102.87
2018-02-08T20:02:53.784Z,101.93
2018-02-08T20:05:22.040Z,100.50
2018-02-08T20:07:50.325Z,115.83
2018-02-08T20:10:18.703Z,104.33
2018-02-08T20:12:46.988Z,95.00
2018-02-08T20:18:08.834Z,103.27
2018-02-08T20:20:37.089Z,106.47
2018-02-08T20:23:05.410Z,110.78
2018-02-08T20:25:34.480Z,98.47
2018-02-08T20:28:02.789Z,110.82
2018-02-08T20:30:31.050Z,95.33
2018-02-08T20:32:59.365Z,95.82
2018-02-08T20:35:27.630Z,102.30
2018-02-08T20:37:56.316Z,108.40
2018-02-08T20:40:28.243Z,93.12
2018-02-08T20:43:03.093Z,103.27
2018-02-08T20:45:31.365Z,103.15
2018-02-08T20:47:59.637Z,96.45
2018-02-08T20:50:28.786Z,90.75
2018-02-08T20:52:57.070Z,87.75
2018-02-08T20:55:25.349Z,91.50
2018-02-08T20:57:53.698Z,82.77
2018-02-08T21:00:21.976Z,92.35
2018-02-08T21:02:50.282Z,75.50
2018-02-08T21:05:18.558Z,80.03
2018-02-08T21:07:46.856Z,71.12
2018-02-08T21:10:15.130Z,74.62
2018-02-08T21:12:43.390Z,66.32
2018-02-08T21:15:11.731Z,75.68
2018-02-08T21:17:39.960Z,73.57
2018-02-08T21:20:08.954Z,67.43
2018-02-08T21:22:37.229Z,60.30
2018-02-08T21:25:06.249Z,61.53
2018-02-08T21:27:34.508Z,52.92
2018-02-08T21:30:02.778Z,67.00
2018-02-08T21:32:31.034Z,59.20
2018-02-08T21:34:59.306Z,58.75
2018-02-08T21:37:27.566Z,58.33
2018-02-08T21:39:55.994Z,52.70
2018-02-08T21:42:24.331Z,57.17
2018-02-08T21:44:52.622Z,58.67
2018-02-08T21:47:20.977Z,52.35
2018-02-08T21:49:49.244Z,55.78
2018-02-08T21:52:17.508Z,48.78
2018-02-08T21:54:45.786Z,58.90
2018-02-08T21:57:14.107Z,59.20
2018-02-08T21:59:42.445Z,57.38
2018-02-08T22:02:11.509Z,57.35
2018-02-08T22:04:39.767Z,58.20
2018-02-08T22:07:08.137Z,66.12
2018-02-08T22:09:36.396Z,70.80
2018-02-08T22:12:04.714Z,70.40
2018-02-08T22:14:32.977Z,58.30
2018-02-08T22:17:01.277Z,69.75
2018-02-08T22:19:29.561Z,53.75
2018-02-08T22:21:57.886Z,59.28
2018-02-08T22:24:26.496Z,57.25
2018-02-08T22:26:54.849Z,55.08
2018-02-08T22:29:23.119Z,69.12
2018-02-08T22:31:52.018Z,64.55
2018-02-08T22:34:20.470Z,60.58
2018-02-08T22:36:48.795Z,60.90
2018-02-08T22:39:17.062Z,62.53
2018-02-08T22:41:46.845Z,65.80
2018-02-08T22:44:15.134Z,54.83
2018-02-08T22:46:43.410Z,62.40
2018-02-08T22:49:11.689Z,55.05
2018-02-08T22:51:39.971Z,61.37
2018-02-08T22:54:08.247Z,57.55
2018-02-08T22:56:36.506Z,65.00
2018-02-08T22:59:04.842Z,61.45
2018-02-08T23:01:33.076Z,63.53
2018-02-08T23:04:01.351Z,58.08
2018-02-08T23:06:29.658Z,62.13
2018-02-08T23:08:57.934Z,54.70
2018-02-08T23:11:26.233Z,55.15
2018-02-08T23:13:54.523Z,55.25
2018-02-08T23:16:22.785Z,59.95
2018-02-08T23:18:51.065Z,60.22
2018-02-08T23:21:19.325Z,62.75
2018-02-08T23:23:47.626Z,54.50
2018-02-08T23:26:15.903Z,64.55
2018-02-08T23:28:44.169Z,62.72
2018-02-08T23:31:12.442Z,60.88
2018-02-08T23:33:40.715Z,73.93
2018-02-08T23:36:09.023Z,75.40
2018-02-08T23:38:37.337Z,76.37
2018-02-08T23:41:05.582Z,83.35
2018-02-08T23:43:33.842Z,74.57
2018-02-08T23:46:02.118Z,85.97
2018-02-08T23:48:30.377Z,105.20
2018-02-08T23:50:58.689Z,103.65
2018-02-08T23:53:26.981Z,100.43
2018-02-08T23:55:55.263Z,93.22
2018-02-08T23:58:23.543Z,94.70
